Time;durP1;ratioP1;P1;durP2;ratioP2;P2;SDS_P1;SDS_P2;PMS_P1;PMS_P2;Temp;Humidity;BMP_temperature;BMP_pressure;BME280_temperature;BME280_humidity;BME280_pressure;Samples;Min_cycle;Max_cycle;Signal;HPM_P1;HPM_P2
2022/06/22 00:00:40;;;;;;;8.70;7.63;;;23.20;90.20;;;23.75;58.73;94623.94;4979292;28;20475;-56
2022/06/22 00:03:10;;;;;;;17.73;7.80;;;23.20;90.20;;;23.74;58.48;94629.53;4978600;28;20487;-54
2022/06/22 00:05:39;;;;;;;9.20;7.53;;;23.20;90.30;;;23.73;58.48;94617.13;4980287;28;20992;-53
2022/06/22 00:08:08;;;;;;;10.50;7.07;;;23.20;90.30;;;23.72;58.36;94620.88;4979830;28;20525;-53
2022/06/22 00:10:40;;;;;;;9.00;7.33;;;23.20;90.40;;;23.70;58.31;94622.97;4981366;28;20501;-53
2022/06/22 00:13:17;;;;;;;13.53;7.70;;;23.20;90.40;;;23.68;58.90;94635.81;4980781;28;20795;-53
2022/06/22 00:15:49;;;;;;;8.60;7.80;;;23.20;90.60;;;23.68;58.97;94630.44;4981463;28;20890;-55
2022/06/22 00:18:30;;;;;;;13.00;7.90;;;23.10;90.90;;;23.67;58.80;94631.47;4978255;28;20459;-56
2022/06/22 00:21:00;;;;;;;10.70;8.90;;;23.10;90.60;;;23.68;58.24;94639.31;4978807;28;20475;-55
2022/06/22 00:23:34;;;;;;;12.03;8.40;;;23.10;90.70;;;23.66;59.05;94632.53;4978269;28;20459;-55
2022/06/22 00:26:33;;;;;;;10.40;7.37;;;23.10;90.70;;;23.65;59.28;94626.34;4980285;28;20742;-55
2022/06/22 00:29:23;;;;;;;11.60;7.30;;;23.10;90.80;;;23.63;58.96;94626.56;4977580;28;20524;-56
2022/06/22 00:32:02;;;;;;;9.87;7.63;;;23.10;90.80;;;23.66;58.99;94627.16;4972303;28;20466;-56
2022/06/22 00:34:32;;;;;;;9.83;7.10;;;23.10;90.90;;;23.66;58.37;94616.44;4977057;28;20447;-53
2022/06/22 00:37:01;;;;;;;21.13;7.77;;;23.10;90.70;;;23.67;58.37;94610.00;4980013;28;20450;-55
2022/06/22 00:39:37;;;;;;;9.03;7.00;;;23.10;90.80;;;23.68;58.98;94615.13;4979632;28;20462;-51
2022/06/22 00:42:29;;;;;;;10.90;8.17;;;23.10;91.10;;;23.70;58.94;94617.59;4985922;28;20964;-55
2022/06/22 00:45:01;;;;;;;13.53;6.97;;;23.20;91.00;;;23.71;58.52;94613.88;4980275;28;20497;-53
2022/06/22 00:47:31;;;;;;;8.90;8.00;;;23.20;91.00;;;23.73;58.47;94619.81;4974867;28;20475;-55
2022/06/22 00:50:03;;;;;;;9.83;8.93;;;23.20;91.10;;;23.76;58.77;94632.78;4979763;28;20535;-55
2022/06/22 00:52:37;;;;;;;13.37;7.90;;;23.20;91.20;;;23.78;58.63;94626.16;4978888;28;20844;-54
2022/06/22 00:55:05;;;;;;;19.70;9.10;;;23.20;91.20;;;23.79;58.30;94625.09;4976553;28;20481;-53
2022/06/22 00:57:35;;;;;;;16.70;8.40;;;23.20;91.20;;;23.84;59.07;94620.91;4979902;28;20905;-52
2022/06/22 01:00:06;;;;;;;11.97;8.30;;;23.20;91.20;;;23.85;58.52;94626.09;4978758;28;20982;-55
2022/06/22 01:02:38;;;;;;;12.50;7.83;;;23.30;91.20;;;23.86;58.53;94625.06;4980487;28;20447;-56
2022/06/22 01:05:16;;;;;;;11.80;8.20;;;23.30;91.20;;;23.89;58.82;94621.06;4979605;28;21106;-55
2022/06/22 01:07:49;;;;;;;12.07;7.57;;;23.30;91.20;;;23.89;58.91;94632.66;4978605;28;20485;-56
2022/06/22 01:10:21;;;;;;;12.87;8.27;;;23.30;91.20;;;23.91;58.90;94627.06;4972802;28;20490;-55
2022/06/22 01:12:51;;;;;;;13.13;8.37;;;23.30;91.20;;;23.91;58.53;94619.00;4979047;28;20450;-54
2022/06/22 01:15:22;;;;;;;18.87;9.37;;;23.30;91.30;;;23.90;59.09;94617.34;4980295;28;20470;-54
2022/06/22 01:17:55;;;;;;;14.40;8.20;;;23.30;91.20;;;23.89;58.44;94613.84;4977108;28;20447;-53
2022/06/22 01:20:46;;;;;;;23.20;9.30;;;23.30;91.20;;;23.88;59.27;94622.94;4977174;28;20482;-54
2022/06/22 01:23:56;;;;;;;15.70;7.70;;;23.30;91.30;;;23.87;59.20;94618.59;4972128;28;20446;-55
2022/06/22 01:27:05;;;;;;;9.27;7.57;;;23.30;91.40;;;23.84;59.38;94605.63;4979311;28;20477;-56
2022/06/22 01:29:34;;;;;;;23.90;7.80;;;23.30;91.30;;;23.84;58.49;94604.78;4961861;28;20638;-56
2022/06/22 01:32:04;;;;;;;17.07;8.07;;;23.30;91.30;;;23.83;58.81;94605.84;4978744;28;20465;-53
2022/06/22 01:34:34;;;;;;;16.40;8.80;;;23.30;91.40;;;23.83;58.58;94595.94;4980007;28;20536;-55
2022/06/22 01:37:02;;;;;;;14.87;8.80;;;23.30;91.50;;;23.82;58.77;94599.66;4978445;28;20450;-55
2022/06/22 01:39:30;;;;;;;14.67;8.30;;;23.30;91.50;;;23.81;59.17;94600.69;4977904;28;21081;-53
2022/06/22 01:42:00;;;;;;;14.23;8.80;;;23.30;91.60;;;23.81;58.81;94598.00;4981470;28;20451;-53
2022/06/22 01:44:30;;;;;;;12.13;7.80;;;23.30;91.60;;;23.80;58.88;94601.75;4976649;28;20868;-55
2022/06/22 01:47:22;;;;;;;12.50;8.23;;;23.30;91.70;;;23.80;59.39;94596.38;4977055;28;20867;-54
2022/06/22 01:49:56;;;;;;;13.43;8.10;;;23.20;91.90;;;23.80;58.81;94596.38;4977818;28;20839;-56
2022/06/22 01:52:53;;;;;;;13.90;7.67;;;23.20;91.80;;;23.81;59.95;94595.31;4977351;28;20469;-56
2022/06/22 01:55:28;;;;;;;10.00;7.47;;;23.30;91.90;;;23.81;59.30;94598.00;4977548;28;20481;-56
2022/06/22 01:58:01;;;;;;;15.67;8.73;;;23.30;91.80;;;23.82;59.39;94599.66;4975754;28;20508;-56
2022/06/22 02:00:28;;;;;;;13.17;7.90;;;23.30;91.80;;;23.82;59.32;94605.03;4977720;28;20894;-53
2022/06/22 02:03:01;;;;;;;18.20;8.70;;;23.30;91.90;;;23.79;58.87;94600.09;4978054;28;20929;-54
2022/06/22 02:05:31;;;;;;;21.17;8.17;;;23.20;91.90;;;23.76;59.74;94598.69;4977595;28;20494;-56
2022/06/22 02:08:04;;;;;;;18.33;8.60;;;23.20;92.10;;;23.75;59.00;94604.28;4975864;28;20491;-55
2022/06/22 02:10:39;;;;;;;16.10;8.60;;;23.20;92.00;;;23.73;59.78;94601.84;4978424;28;20467;-55
2022/06/22 02:13:17;;;;;;;11.10;8.70;;;23.20;92.10;;;23.73;59.39;94587.59;4977471;28;20456;-58
2022/06/22 02:15:51;;;;;;;12.83;9.77;;;23.20;92.20;;;23.72;59.94;94589.47;4980951;28;20497;-54
2022/06/22 02:18:25;;;;;;;18.93;9.77;;;23.20;92.20;;;23.71;60.03;94595.88;4978920;28;20790;-55
2022/06/22 02:20:52;;;;;;;22.10;10.20;;;23.20;92.20;;;23.71;59.90;94593.19;4974949;28;20467;-56
2022/06/22 02:23:24;;;;;;;21.10;10.03;;;23.20;92.30;;;23.70;59.52;94590.75;4977289;28;20478;-55
2022/06/22 02:26:08;;;;;;;15.13;10.50;;;23.10;92.30;;;23.67;59.99;94593.88;4979073;28;21007;-53
2022/06/22 02:28:35;;;;;;;14.63;9.63;;;23.20;92.50;;;23.66;59.46;94594.94;4976833;28;20479;-54
2022/06/22 02:31:03;;;;;;;18.23;10.97;;;23.10;92.50;;;23.62;60.30;94591.88;4977443;28;21015;-54
2022/06/22 02:33:32;;;;;;;19.67;13.37;;;23.10;92.70;;;23.57;60.15;94594.44;4976357;28;20490;-55
2022/06/22 02:35:59;;;;;;;17.97;12.57;;;23.00;92.60;;;23.51;60.37;94592.66;4979052;28;20485;-55
2022/06/22 02:38:26;;;;;;;16.10;11.80;;;23.00;92.90;;;23.42;60.36;94589.47;4977376;28;20489;-56
2022/06/22 02:46:35;;;;;;;15.40;9.33;;;22.80;93.30;;;23.32;61.74;94589.19;4982149;28;20452;-54
2022/06/22 02:49:08;;;;;;;16.23;9.40;;;22.80;94.00;;;23.29;61.21;94579.72;4981493;28;20505;-54
2022/06/22 02:51:39;;;;;;;10.60;9.50;;;22.80;93.60;;;23.27;61.39;94582.63;4981758;28;20475;-55
2022/06/22 02:54:10;;;;;;;16.13;10.00;;;22.70;93.90;;;23.23;61.93;94586.81;4975072;28;20451;-54
2022/06/22 02:56:41;;;;;;;21.17;11.20;;;22.70;94.00;;;23.19;61.71;94590.16;4980417;28;20490;-53
2022/06/22 02:59:08;;;;;;;19.67;11.30;;;22.70;94.00;;;23.13;62.15;94599.13;4982278;28;20466;-56
2022/06/22 03:01:35;;;;;;;24.93;11.00;;;22.60;94.20;;;23.07;62.35;94604.31;4981452;28;20832;-54
2022/06/22 03:04:09;;;;;;;16.13;11.73;;;22.50;94.40;;;23.02;61.56;94608.69;4978971;28;20459;-53
2022/06/22 03:06:39;;;;;;;22.00;12.73;;;22.50;94.20;;;22.98;62.13;94602.16;4981776;28;20478;-55
2022/06/22 03:09:06;;;;;;;19.77;11.83;;;22.50;94.30;;;22.95;62.74;94594.56;4980538;28;20502;-54
2022/06/22 03:11:34;;;;;;;13.03;11.63;;;22.40;94.70;;;22.91;62.50;94592.34;4979345;28;20905;-53
2022/06/22 03:14:09;;;;;;;20.80;12.43;;;22.40;94.60;;;22.90;62.59;94598.72;4980481;28;20517;-54
2022/06/22 03:16:38;;;;;;;16.53;12.20;;;22.40;94.80;;;22.87;62.79;94593.81;4983444;28;20836;-56
2022/06/22 03:19:13;;;;;;;21.10;11.73;;;22.40;94.80;;;22.86;62.45;94597.53;4980303;28;20462;-55
2022/06/22 03:21:41;;;;;;;20.33;11.97;;;22.40;95.00;;;22.85;62.52;94595.91;4980487;28;20482;-53
2022/06/22 03:24:14;;;;;;;15.17;10.77;;;22.30;95.00;;;22.85;63.00;94601.28;4978358;28;20506;-55
2022/06/22 03:26:43;;;;;;;20.30;10.90;;;22.30;95.30;;;22.86;62.56;94592.16;4981355;28;21026;-53
2022/06/22 03:29:16;;;;;;;20.97;10.00;;;22.40;95.30;;;22.88;63.17;94590.09;4980600;28;21019;-55
2022/06/22 03:31:45;;;;;;;24.47;10.40;;;22.30;95.40;;;22.92;62.76;94595.81;4978133;28;20563;-55
2022/06/22 03:34:17;;;;;;;11.63;10.43;;;22.40;95.50;;;22.97;63.04;94590.59;4981834;28;20469;-52
2022/06/22 03:36:46;;;;;;;15.93;9.73;;;22.40;95.60;;;23.05;62.80;94597.53;4980068;28;20558;-54
2022/06/22 03:39:17;;;;;;;15.03;9.40;;;22.50;95.60;;;23.14;63.19;94600.78;4981000;28;20537;-56
2022/06/22 03:41:48;;;;;;;16.33;10.27;;;22.50;95.50;;;23.22;62.91;94605.81;4984710;28;20832;-55
2022/06/22 03:44:18;;;;;;;14.93;10.40;;;22.60;95.80;;;23.28;62.71;94588.81;4980412;28;20446;-56
2022/06/22 03:46:49;;;;;;;14.67;9.43;;;22.70;95.60;;;23.33;62.23;94590.81;4981417;28;20846;-55
2022/06/22 03:49:20;;;;;;;11.10;9.60;;;22.80;95.50;;;23.35;62.36;94599.50;4983685;28;20482;-52
2022/06/22 03:51:51;;;;;;;17.00;10.20;;;22.80;95.30;;;23.35;62.66;94613.72;4986158;28;21049;-57
2022/06/22 03:54:21;;;;;;;13.27;9.80;;;22.80;95.20;;;23.39;62.75;94617.59;4980295;28;20447;-53
2022/06/22 03:56:51;;;;;;;10.70;9.50;;;22.80;95.20;;;23.42;62.79;94622.50;4979855;28;20490;-55
2022/06/22 03:59:18;;;;;;;12.80;9.20;;;22.90;95.50;;;23.46;62.63;94628.25;4981100;28;20455;-54
2022/06/22 04:01:46;;;;;;;21.27;10.67;;;22.90;95.30;;;23.51;62.83;94631.06;4980125;28;20478;-54
2022/06/22 04:04:13;;;;;;;10.63;9.53;;;23.00;95.30;;;23.54;62.29;94625.22;4977257;28;20466;-54
2022/06/22 04:06:45;;;;;;;13.13;10.30;;;23.00;95.40;;;23.56;62.60;94625.00;4981011;28;20560;-54
2022/06/22 04:09:15;;;;;;;22.03;10.57;;;23.00;95.70;;;23.56;62.44;94617.78;4979363;28;20490;-52
2022/06/22 04:11:47;;;;;;;14.73;9.87;;;23.00;95.70;;;23.59;62.84;94622.72;4980650;28;20556;-53
2022/06/22 04:14:18;;;;;;;14.20;10.80;;;23.00;95.70;;;23.61;62.46;94604.50;4980144;28;20446;-54
2022/06/22 04:16:49;;;;;;;11.67;10.30;;;23.10;95.80;;;23.65;62.63;94606.72;4983658;28;20470;-55
2022/06/22 04:19:21;;;;;;;16.30;10.43;;;23.10;95.80;;;23.66;63.14;94598.44;4978068;28;20451;-55
2022/06/22 04:21:57;;;;;;;20.77;10.30;;;23.10;95.60;;;23.67;62.41;94594.72;4973216;28;20487;-54
2022/06/22 04:24:27;;;;;;;25.47;11.30;;;23.10;95.30;;;23.68;62.29;94604.41;4981209;28;20870;-54
2022/06/22 04:26:59;;;;;;;17.23;10.23;;;23.20;95.70;;;23.70;62.38;94596.94;4980118;28;20459;-56
2022/06/22 04:29:34;;;;;;;14.43;10.40;;;23.10;95.70;;;23.73;62.87;94601.03;4977950;28;20482;-55
2022/06/22 04:32:04;;;;;;;17.90;10.47;;;23.20;95.70;;;23.75;63.00;94604.28;4978821;28;20457;-53
2022/06/22 04:34:36;;;;;;;19.90;10.87;;;23.20;95.70;;;23.78;62.73;94614.56;4978773;28;20448;-54
2022/06/22 04:37:09;;;;;;;12.37;10.73;;;23.20;95.70;;;23.80;62.63;94613.31;4974995;28;21058;-56
2022/06/22 04:39:40;;;;;;;19.20;10.97;;;23.20;95.70;;;23.85;62.92;94623.41;4980316;28;21032;-54
2022/06/22 04:42:09;;;;;;;13.93;11.03;;;23.30;95.90;;;23.87;62.46;94613.25;4984858;28;20820;-55
2022/06/22 04:44:45;;;;;;;15.43;10.47;;;23.30;95.90;;;23.93;63.50;94622.25;4976875;28;20455;-54
2022/06/22 04:47:16;;;;;;;12.40;10.10;;;23.40;96.00;;;23.96;63.03;94621.81;4981468;28;20808;-53
2022/06/22 04:49:52;;;;;;;13.23;10.70;;;23.40;96.10;;;23.99;63.39;94624.84;4979357;28;20506;-54
2022/06/22 04:52:24;;;;;;;10.60;9.60;;;23.40;96.00;;;24.02;62.90;94634.31;4976207;28;20457;-54
2022/06/22 04:54:54;;;;;;;11.03;9.83;;;23.50;96.00;;;24.06;62.71;94634.66;4979999;28;20466;-55
2022/06/22 04:57:25;;;;;;;12.10;9.30;;;23.50;96.20;;;24.08;63.14;94632.59;4977285;28;20818;-56
2022/06/22 04:59:52;;;;;;;13.63;9.53;;;23.50;96.00;;;24.09;63.39;94636.88;4977240;28;20601;-56
2022/06/22 05:02:22;;;;;;;18.50;10.47;;;23.50;96.10;;;24.11;63.06;94640.19;4979565;28;20481;-55
2022/06/22 05:04:51;;;;;;;18.03;11.17;;;23.60;96.10;;;24.13;62.74;94648.81;4975287;28;20471;-58
2022/06/22 05:07:45;;;;;;;20.80;10.23;;;23.60;96.20;;;24.18;62.87;94648.94;4977262;28;20770;-54
2022/06/22 05:10:17;;;;;;;16.13;10.57;;;23.60;96.30;;;24.22;62.75;94636.69;4976993;28;21005;-55
2022/06/22 05:12:49;;;;;;;18.30;10.07;;;23.70;96.20;;;24.25;63.43;94636.25;4976380;28;20455;-55
2022/06/22 05:15:21;;;;;;;12.73;10.27;;;23.70;96.40;;;24.32;63.16;94642.34;4981729;28;20589;-54
2022/06/22 05:17:48;;;;;;;18.23;10.20;;;23.70;96.50;;;24.39;62.93;94647.59;4979863;28;20964;-55
2022/06/22 05:20:19;;;;;;;15.43;9.80;;;23.80;96.50;;;24.50;63.35;94646.78;4979827;28;20834;-56
2022/06/22 05:22:48;;;;;;;10.90;9.00;;;23.90;96.50;;;24.61;62.67;94645.19;4978281;28;20456;-56
2022/06/22 05:25:15;;;;;;;14.23;9.70;;;24.00;96.50;;;24.72;62.56;94637.38;4977598;28;20483;-55
2022/06/22 05:27:50;;;;;;;16.47;9.57;;;24.10;96.40;;;24.85;63.18;94639.84;4979494;28;20557;-53
2022/06/22 05:30:18;;;;;;;20.17;10.30;;;24.20;96.50;;;25.00;62.55;94650.09;4978244;28;20931;-57
2022/06/22 05:32:48;;;;;;;19.17;10.13;;;24.30;96.30;;;25.11;62.32;94638.50;4974667;28;20485;-54
2022/06/22 05:35:18;;;;;;;11.63;9.97;;;24.40;96.30;;;25.24;62.51;94634.75;4978592;28;20466;-53
2022/06/22 05:37:50;;;;;;;14.90;8.83;;;24.50;96.00;;;25.38;62.24;94638.03;4977195;28;20469;-56
2022/06/22 05:40:18;;;;;;;18.90;10.60;;;24.70;96.10;;;25.52;62.19;94644.78;4982969;28;20485;-56
2022/06/22 05:42:45;;;;;;;12.77;9.30;;;24.80;96.00;;;25.67;61.82;94646.13;4975868;28;20471;-57
2022/06/22 05:45:15;;;;;;;20.20;8.73;;;25.00;95.90;;;25.82;61.54;94645.59;4977297;28;20488;-54
2022/06/22 05:47:42;;;;;;;9.70;8.80;;;25.10;95.50;;;25.95;61.05;94648.03;4979835;28;20451;-54
2022/06/22 05:50:15;;;;;;;14.80;8.33;;;25.20;95.20;;;26.05;60.64;94655.50;4977857;28;20568;-54
2022/06/22 05:52:46;;;;;;;11.73;9.27;;;25.40;95.00;;;26.18;59.99;94652.50;4979599;28;20453;-52
2022/06/22 05:55:18;;;;;;;14.67;10.53;;;25.50;94.60;;;26.30;59.85;94657.81;4978023;28;20486;-56
2022/06/22 05:57:47;;;;;;;18.80;9.40;;;25.60;94.60;;;26.42;59.38;94655.84;4978165;28;20450;-56
2022/06/22 06:00:18;;;;;;;11.67;9.00;;;25.70;94.30;;;26.54;59.53;94658.50;4975473;28;20479;-56
2022/06/22 06:02:58;;;;;;;17.70;9.67;;;25.80;94.00;;;26.66;59.40;94658.41;4974409;28;20458;-53
2022/06/22 06:05:27;;;;;;;23.07;10.10;;;25.90;93.80;;;26.77;58.91;94654.00;4976952;28;20484;-53
2022/06/22 06:07:56;;;;;;;14.47;10.20;;;26.10;93.80;;;26.87;58.59;94648.78;4977437;28;20454;-55
2022/06/22 06:10:28;;;;;;;18.67;8.47;;;26.10;93.50;;;26.98;57.81;94655.94;4977290;28;20887;-55
2022/06/22 06:13:03;;;;;;;15.50;9.00;;;26.30;93.00;;;27.09;57.96;94651.50;4983090;28;20446;-54
2022/06/22 06:15:31;;;;;;;9.27;7.67;;;26.40;93.00;;;27.22;57.99;94654.91;4982243;28;20477;-55
2022/06/22 06:17:59;;;;;;;10.80;7.80;;;26.50;92.60;;;27.32;57.41;94649.69;4984238;28;20513;-56
2022/06/22 06:20:28;;;;;;;16.13;9.43;;;26.60;92.60;;;27.43;57.62;94648.75;4979043;28;20478;-53
2022/06/22 06:22:59;;;;;;;11.33;8.17;;;26.70;92.50;;;27.57;57.17;94651.06;4981220;28;20475;-57
2022/06/22 06:28:21;;;;;;;12.27;8.43;;;27.00;91.90;;;27.80;56.36;94655.41;4978976;28;20437;-56
2022/06/22 06:30:50;;;;;;;13.67;8.30;;;27.10;91.40;;;27.85;55.92;94658.97;4982530;28;20501;-56
2022/06/22 06:33:21;;;;;;;10.73;8.87;;;27.10;91.20;;;27.94;56.05;94658.53;4977664;28;20443;-54
2022/06/22 06:35:50;;;;;;;13.40;8.27;;;27.20;91.00;;;28.01;56.01;94654.59;4983042;28;20481;-56
2022/06/22 06:38:21;;;;;;;15.10;8.50;;;27.30;90.90;;;28.12;55.49;94658.22;4978738;28;20539;-55
2022/06/22 06:40:54;;;;;;;10.73;8.53;;;27.40;90.70;;;28.20;55.23;94649.63;4982451;28;20825;-55
2022/06/22 06:43:33;;;;;;;11.27;8.80;;;27.50;90.40;;;28.31;54.89;94647.03;4976009;28;20449;-56
2022/06/22 06:46:01;;;;;;;14.07;8.20;;;27.60;90.50;;;28.44;54.09;94643.88;4976160;28;20463;-54
2022/06/22 06:48:29;;;;;;;22.33;8.17;;;27.70;89.80;;;28.54;54.06;94643.16;4979018;28;20451;-56
2022/06/22 06:51:00;;;;;;;17.60;9.10;;;27.80;89.60;;;28.64;54.04;94635.13;4977040;28;20502;-56
2022/06/22 06:53:30;;;;;;;18.73;7.63;;;27.90;89.50;;;28.78;53.81;94627.38;4979095;28;20668;-56
2022/06/22 06:56:10;;;;;;;12.90;8.47;;;28.00;89.10;;;28.92;53.72;94634.00;4978045;28;20484;-54
2022/06/22 06:58:43;;;;;;;18.80;8.90;;;28.20;88.00;;;29.07;53.74;94640.59;4977535;28;20489;-55
2022/06/22 07:01:17;;;;;;;13.37;8.27;;;28.30;87.70;;;29.23;53.13;94634.19;4976188;28;20490;-55
2022/06/22 07:03:44;;;;;;;9.50;7.90;;;28.40;87.90;;;29.37;52.76;94631.81;4977812;28;20979;-56
2022/06/22 07:06:11;;;;;;;21.53;8.23;;;28.60;87.20;;;29.50;52.56;94628.63;4977287;28;20489;-57
2022/06/22 07:08:41;;;;;;;18.40;8.30;;;28.70;86.90;;;29.64;52.04;94626.25;4978769;28;20226;-55
2022/06/22 07:11:15;;;;;;;27.77;7.63;;;28.90;85.90;;;29.77;52.71;94622.22;4978079;28;20474;-55
2022/06/22 07:13:47;;;;;;;11.03;8.00;;;29.00;85.90;;;29.89;52.75;94622.00;4974891;28;20451;-55
2022/06/22 07:16:19;;;;;;;13.57;8.70;;;29.10;85.60;;;30.01;52.03;94616.34;4979353;28;20579;-56
2022/06/22 07:18:49;;;;;;;16.67;8.50;;;29.20;85.30;;;30.15;52.27;94622.88;4977980;28;20210;-54
2022/06/22 07:21:19;;;;;;;11.10;7.97;;;29.30;84.60;;;30.28;51.57;94616.09;4978944;28;20262;-56
2022/06/22 07:23:49;;;;;;;8.40;7.60;;;29.50;84.90;;;30.42;51.12;94613.69;4977436;28;20259;-55
2022/06/22 07:26:26;;;;;;;12.87;8.20;;;29.60;83.90;;;30.55;50.87;94609.63;4977462;28;20352;-56
2022/06/22 07:28:59;;;;;;;15.63;9.90;;;29.70;83.40;;;30.69;50.97;94610.72;4979159;28;20695;-52
2022/06/22 07:31:27;;;;;;;29.07;14.60;;;29.90;82.50;;;30.83;50.89;94607.41;4978241;28;20231;-55
2022/06/22 07:33:59;;;;;;;30.97;15.50;;;30.00;81.70;;;30.93;50.32;94610.13;4980000;28;20388;-54
2022/06/22 07:36:31;;;;;;;27.43;15.10;;;30.10;80.60;;;31.03;49.99;94609.31;4981911;28;20345;-52
2022/06/22 07:39:03;;;;;;;19.67;15.33;;;30.30;79.70;;;31.10;49.87;94609.84;4981725;28;20263;-56
2022/06/22 07:41:31;;;;;;;20.60;15.40;;;30.30;78.50;;;31.20;48.81;94614.44;4982410;28;20689;-55
2022/06/22 07:44:01;;;;;;;21.37;16.07;;;30.40;78.50;;;31.31;49.21;94617.94;4981164;28;20210;-55
2022/06/22 07:46:34;;;;;;;20.13;15.90;;;30.50;77.90;;;31.42;48.81;94611.41;4982060;28;20773;-53
2022/06/22 07:49:07;;;;;;;45.77;14.90;;;30.60;77.40;;;31.52;49.41;94616.78;4977670;28;20580;-55
2022/06/22 07:51:34;;;;;;;22.67;15.03;;;30.70;77.20;;;31.66;48.49;94627.09;4981152;28;20246;-54
2022/06/22 07:54:06;;;;;;;22.10;13.60;;;30.80;76.60;;;31.75;47.91;94634.38;4979400;28;20630;-56
2022/06/22 07:56:47;;;;;;;15.73;12.73;;;30.90;75.70;;;31.86;47.41;94626.19;4980607;28;20638;-56
2022/06/22 07:59:17;;;;;;;18.53;12.20;;;31.10;75.30;;;31.98;47.97;94629.38;4975801;28;20291;-56
2022/06/22 08:01:45;;;;;;;24.35;14.65;;;31.20;75.30;;;32.04;47.92;94632.84;4980908;28;20230;-55
2022/06/22 08:04:17;;;;;;;14.27;12.80;;;31.30;74.80;;;32.04;48.13;94633.69;4981056;28;20210;-56
2022/06/22 08:06:49;;;;;;;15.73;13.47;;;31.30;74.00;;;32.00;47.93;94638.06;4980602;28;20226;-55
2022/06/22 08:09:19;;;;;;;22.50;13.40;;;31.30;73.60;;;31.99;47.77;94637.25;4979556;28;20598;-56
2022/06/22 08:11:51;;;;;;;25.17;14.50;;;31.30;73.40;;;31.91;47.54;94640.53;4981307;28;20650;-57
2022/06/22 08:14:21;;;;;;;18.88;13.40;;;31.20;72.70;;;31.84;47.22;94642.78;4977257;28;20399;-57
2022/06/22 08:16:51;;;;;;;17.17;13.23;;;31.20;72.30;;;31.81;47.76;94641.41;4985048;28;20244;-55
2022/06/22 08:19:18;;;;;;;13.93;11.63;;;31.10;73.10;;;31.87;47.86;94644.09;4980738;28;20204;-51
2022/06/22 08:21:48;;;;;;;16.73;12.73;;;31.10;73.50;;;31.98;47.98;94645.69;4978168;28;20604;-54
2022/06/22 08:24:16;;;;;;;21.63;13.27;;;31.20;73.90;;;32.14;47.58;94639.09;4981926;28;20215;-57
2022/06/22 08:26:44;;;;;;;17.60;12.30;;;31.30;73.10;;;32.29;47.48;94637.38;4979818;28;20623;-53
2022/06/22 08:29:13;;;;;;;18.17;13.15;;;31.50;72.90;;;32.39;47.31;94631.84;4980524;28;20299;-52
2022/06/22 08:31:49;;;;;;;19.90;12.60;;;31.60;71.70;;;32.50;47.08;94630.69;4979233;28;20243;-55
2022/06/22 08:34:19;;;;;;;22.40;13.70;;;31.70;71.10;;;32.60;46.38;94635.22;4980863;28;20207;-57
2022/06/22 08:36:49;;;;;;;19.70;14.40;;;31.80;70.70;;;32.71;46.00;94633.25;4980837;28;20233;-56
2022/06/22 08:39:19;;;;;;;18.30;13.95;;;31.90;69.80;;;32.83;46.01;94625.53;4979479;28;20219;-57
2022/06/22 08:41:53;;;;;;;14.95;12.32;;;32.00;69.10;;;32.96;45.70;94623.25;4984970;28;20288;-55
2022/06/22 08:44:33;;;;;;;16.55;13.75;;;32.10;68.70;;;33.10;45.31;94621.44;4974170;28;20537;-54
2022/06/22 08:47:30;;;;;;;18.95;12.70;;;32.30;68.20;;;33.22;43.15;94621.91;4982104;28;20206;-53
2022/06/22 08:50:26;;;;;;;19.63;13.07;;;32.40;67.00;;;33.29;42.69;94615.28;4973495;28;20238;-55
2022/06/22 08:53:08;;;;;;;23.52;12.57;;;32.50;64.40;;;33.32;43.76;94617.44;4976765;28;20202;-54
2022/06/22 08:56:07;;;;;;;24.60;11.35;;;32.60;64.40;;;33.43;43.44;94613.47;4976229;28;20235;-55
2022/06/22 08:59:16;;;;;;;18.45;11.93;;;32.60;63.70;;;33.50;42.24;94624.84;4978834;28;20639;-55
2022/06/22 09:01:55;;;;;;;17.70;11.68;;;32.70;62.70;;;33.53;42.75;94607.91;4968025;28;20222;-55
2022/06/22 09:04:36;;;;;;;11.90;10.80;;;32.80;62.00;;;33.51;43.05;94604.69;4979215;28;20207;-52
2022/06/22 09:07:16;;;;;;;21.42;12.57;;;32.80;62.30;;;33.53;42.38;94590.75;4978512;28;20207;-54
2022/06/22 09:10:13;;;;;;;15.45;11.32;;;32.80;61.20;;;33.47;41.89;94597.38;4978318;28;20226;-57
2022/06/22 09:12:56;;;;;;;20.52;11.35;;;32.70;59.60;;;33.31;42.56;94599.44;4979079;28;20215;-56
2022/06/22 09:15:43;;;;;;;13.32;10.80;;;32.60;60.70;;;33.26;42.85;94596.78;4979684;28;20715;-56
2022/06/22 09:18:46;;;;;;;19.83;10.68;;;32.60;61.40;;;33.24;42.67;94589.69;4977110;28;20203;-56
2022/06/22 09:21:22;;;;;;;15.88;11.23;;;32.50;61.70;;;33.31;42.83;94585.81;4978361;28;20238;-55
2022/06/22 09:24:02;;;;;;;28.92;11.30;;;32.60;61.70;;;33.36;42.94;94586.56;4975039;28;20206;-55
2022/06/22 09:26:36;;;;;;;14.70;10.93;;;32.60;61.20;;;33.45;43.08;94586.75;4974870;28;20262;-57
2022/06/22 09:29:12;;;;;;;15.35;10.10;;;32.70;61.50;;;33.46;42.84;94585.63;4978962;28;20235;-53
2022/06/22 09:32:28;;;;;;;17.40;11.50;;;32.70;60.90;;;33.42;42.47;94579.16;4977623;28;20238;-56
2022/06/22 09:35:38;;;;;;;16.70;10.82;;;32.70;60.40;;;33.33;42.62;94564.53;4969038;28;20273;-57
2022/06/22 09:38:30;;;;;;;18.98;10.23;;;32.60;59.90;;;33.35;42.73;94563.13;4965169;28;20262;-58
2022/06/22 09:41:02;;;;;;;23.17;10.13;;;32.60;60.40;;;33.37;42.17;94565.56;4979397;28;20594;-55
2022/06/22 09:44:11;;;;;;;17.65;9.43;;;32.60;60.00;;;33.28;42.01;94570.03;4978374;28;20207;-56
2022/06/22 09:47:31;;;;;;;13.75;9.40;;;32.60;59.50;;;33.10;41.92;94575.13;4977773;28;20219;-53
2022/06/22 09:50:29;;;;;;;24.77;9.35;;;32.50;59.00;;;32.95;41.77;94576.09;4973466;28;20548;-55
2022/06/22 09:53:40;;;;;;;10.52;8.75;;;32.30;59.40;;;32.86;42.29;94581.38;4975681;28;20294;-56
2022/06/22 09:56:30;;;;;;;12.95;8.85;;;32.20;59.50;;;32.82;42.30;94577.59;4972439;28;20237;-56
2022/06/22 09:59:47;;;;;;;26.15;8.05;;;32.10;59.60;;;32.82;41.69;94576.78;4975470;28;20211;-53
2022/06/22 10:02:35;;;;;;;11.63;8.48;;;32.10;59.00;;;32.79;42.33;94583.59;4978303;28;20205;-54
2022/06/22 10:06:04;;;;;;;11.60;8.52;;;32.10;59.40;;;32.70;42.23;94590.78;4977137;28;20599;-55
2022/06/22 10:08:56;;;;;;;15.20;8.52;;;32.00;59.60;;;32.50;42.86;94598.00;4975631;28;20225;-56
2022/06/22 10:11:29;;;;;;;14.75;8.52;;;31.90;59.90;;;32.34;42.98;94601.94;4977944;28;20596;-57
2022/06/22 10:14:46;;;;;;;32.00;9.63;;;31.70;59.50;;;32.09;42.69;94603.75;4972809;28;20664;-54
2022/06/22 10:17:46;;;;;;;16.02;8.40;;;31.50;59.10;;;31.94;43.59;94611.97;4976679;28;20206;-57
2022/06/22 10:20:48;;;;;;;17.98;9.73;;;31.30;60.40;;;31.90;43.98;94603.56;4976935;28;20227;-55
2022/06/22 10:23:45;;;;;;;17.38;10.07;;;31.20;61.20;;;31.87;44.03;94612.28;4975965;28;20207;-56
2022/06/22 10:26:25;;;;;;;13.40;8.82;;;31.20;61.40;;;31.83;43.93;94616.66;4978088;28;20265;-56
2022/06/22 10:29:22;;;;;;;9.45;8.52;;;31.20;61.70;;;31.79;43.88;94615.59;4978432;28;20230;-58
2022/06/22 10:32:03;;;;;;;19.23;9.40;;;31.10;61.50;;;31.69;43.69;94602.84;4977351;28;20707;-56
2022/06/22 10:34:40;;;;;;;22.48;9.90;;;31.00;61.00;;;31.59;43.98;94601.00;4974720;28;20298;-57
2022/06/22 10:37:57;;;;;;;18.15;10.18;;;30.90;61.60;;;31.56;44.66;94598.84;4978330;28;20734;-53
2022/06/22 10:46:39;;;;;;;16.30;8.07;;;31.00;63.00;;;31.78;44.70;94594.94;4973596;28;20273;-54
2022/06/22 10:49:56;;;;;;;20.23;9.98;;;31.00;62.70;;;31.73;44.58;94584.91;4970989;28;20206;-55
2022/06/22 10:52:37;;;;;;;11.50;9.43;;;31.10;62.50;;;31.67;45.22;94590.63;4978097;28;20211;-58
2022/06/22 10:55:33;;;;;;;14.52;9.10;;;31.00;63.20;;;31.67;44.78;94604.22;4977297;28;20246;-54
2022/06/22 10:58:38;;;;;;;16.75;9.32;;;31.00;63.20;;;31.63;45.34;94595.81;4974592;28;20214;-56
2022/06/22 11:01:40;;;;;;;14.25;9.38;;;30.90;63.20;;;31.57;45.39;94594.22;4955711;28;20222;-55